Minna Airport

DNMN · Niger, 尼日利亚

罗盘
风向 的 风向 220° Minna Airport 5/23
风: 4 kt, 2 beaufort

4 kt

改变
0 ft 1.000 2.000 3.000 4.000 5.000
Cloud Cloud Cloud Cloud
SCT 1.200
METAR DNIL 061000Z 22004KT 9999 SCT012 31/23 Q1013

METAR Minna Airport - DNMN/MXJ

Minna Airport是,尼日利亚中的中型机场。 该机场有一条跑道: 5/23. 该领域的国际民航组织标志是DNMN 它的国际航空运输协会代码是MXJ.

这份报告是针对2023年2月6日 11:00, 当地时间在Ilorin International Airport进行的。

机场观察

风向为220°,速度为4 kt。

可见度为10 km 或者更多。

有疏云,零星散落的云朵在1.200 ft的高度。 没有观察到天花板。

温度和风寒是31 °C。 热指数为36。 露点为23 °C,相对湿度为62%。 海平面上的气压为1013 hPa (QNH)。

白天

今天,太阳从06:55升起,在18:40降落。 这适用于Minna Airport,世界夏令时可能有所不同。 当地时间与世界标准时间之间的时差为+1 小时。 当前,没有夏令时有效。

公司介绍

我们没有关于这个机场的公司信息。

体会

到Vliegles.nl去找飞行课程,跳伞和其他飞行体验。 浏览页面,了解Minna Airport附近所有可用的活动。 你也可以使用搜索功能来寻找你所在地附近的特定飞行课程、跳伞或其他飞行体验。

跑道

Id 标题 侧风 逆风 侧风 %
5/23 045°-225° 4 kt 9 %

逆风成分最大的方向会被突出显示,并用于横风计算。 这并不一定意味着这个方向在使用。

乌云

1.200 ft SCT 疏云,零星散落的云朵

温度 & 天气

温度 31 °C
露点 23 °C
相对湿度 62%
热度指数 36 °C
Kp-index 3 (0-9)

白天

日出
07:01
中午
12:56
日落
18:50 (7:16)

小工具

你想在你的网站上有一个关于Minna Airport的当前航空天气(METAR)的小部件吗?

显示HTML代码

我们和第三方通过cookies跟踪您在我们网站上的互联网行为。如果你继续,我们认为你同意我们的饼干政策